Time;durP1;ratioP1;P1;durP2;ratioP2;P2;SDS_P1;SDS_P2;PMS_P1;PMS_P2;Temp;Humidity;BMP_temperature;BMP_pressure;BME280_temperature;BME280_humidity;BME280_pressure;Samples;Min_cycle;Max_cycle;Signal;HPM_P1;HPM_P2
2021/06/17 00:00:50;;;;;;;56.15;49.92;;;18.80;99.90;;;;;;4125293;28;20129;-76
2021/06/17 00:02:56;;;;;;;63.28;57.15;;;18.80;99.90;;;;;;4127400;28;20425;-75
2021/06/17 00:04:56;;;;;;;61.25;54.70;;;18.80;99.90;;;;;;4130164;28;20481;-76
2021/06/17 00:06:57;;;;;;;60.30;54.47;;;18.70;99.90;;;;;;4130274;28;20046;-76
2021/06/17 00:08:58;;;;;;;57.35;51.58;;;18.70;99.90;;;;;;4130106;28;20109;-76
2021/06/17 00:10:58;;;;;;;53.95;49.00;;;18.70;99.90;;;;;;4128389;28;20155;-75
2021/06/17 00:13:02;;;;;;;61.63;55.40;;;18.70;99.90;;;;;;4129844;28;20145;-75
2021/06/17 00:15:05;;;;;;;63.05;56.65;;;18.60;99.90;;;;;;4129844;28;20034;-76
2021/06/17 00:17:06;;;;;;;62.13;56.15;;;18.60;99.90;;;;;;4130178;28;20121;-76
2021/06/17 00:19:07;;;;;;;61.97;55.75;;;18.60;99.90;;;;;;4128085;28;20750;-76
2021/06/17 00:21:08;;;;;;;63.35;57.25;;;18.50;99.90;;;;;;4129641;28;20050;-76
2021/06/17 00:23:10;;;;;;;62.10;56.10;;;18.50;99.90;;;;;;4130529;28;20050;-76
2021/06/17 00:25:12;;;;;;;64.75;58.30;;;18.50;99.90;;;;;;4133433;28;20573;-75
2021/06/17 00:27:14;;;;;;;61.17;55.20;;;18.50;99.90;;;;;;4129881;28;20441;-75
2021/06/17 00:29:15;;;;;;;65.63;59.00;;;18.50;99.90;;;;;;4129981;28;20030;-75
2021/06/17 00:31:16;;;;;;;72.05;64.55;;;18.40;99.90;;;;;;4130129;28;20033;-75
2021/06/17 00:33:16;;;;;;;68.03;60.92;;;18.40;99.90;;;;;;4129577;28;20054;-75
2021/06/17 00:35:18;;;;;;;64.53;57.60;;;18.40;99.90;;;;;;4128551;28;20058;-75
2021/06/17 00:37:19;;;;;;;55.80;50.25;;;18.40;99.90;;;;;;4130208;28;20465;-75
2021/06/17 00:39:20;;;;;;;67.63;60.65;;;18.40;99.90;;;;;;4131794;28;20038;-76
2021/06/17 00:41:20;;;;;;;67.90;60.78;;;18.40;99.90;;;;;;4132975;28;20049;-76
2021/06/17 00:43:21;;;;;;;64.75;58.05;;;18.30;99.90;;;;;;4131392;28;20385;-76
2021/06/17 00:45:26;;;;;;;64.03;57.72;;;18.30;99.90;;;;;;4133158;28;20447;-76
2021/06/17 00:47:28;;;;;;;72.75;65.43;;;18.30;99.90;;;;;;4131473;28;20390;-75
2021/06/17 00:49:28;;;;;;;66.65;60.03;;;18.30;99.90;;;;;;4132628;28;20038;-76
2021/06/17 00:51:29;;;;;;;66.53;59.80;;;18.30;99.90;;;;;;4132572;28;20069;-76
2021/06/17 00:53:33;;;;;;;67.75;60.95;;;18.30;99.90;;;;;;4132238;28;20049;-75
2021/06/17 00:55:34;;;;;;;67.20;60.83;;;18.30;99.90;;;;;;4132469;28;20486;-75
2021/06/17 00:57:36;;;;;;;61.83;56.00;;;18.30;99.90;;;;;;4131363;28;20076;-75
2021/06/17 00:59:37;;;;;;;68.95;62.05;;;18.20;99.90;;;;;;4160368;28;20191;-75
2021/06/17 01:01:38;;;;;;;64.30;58.08;;;18.20;99.90;;;;;;4132687;28;20445;-75
2021/06/17 01:03:38;;;;;;;63.92;56.95;;;18.20;99.90;;;;;;4132383;28;20053;-75
2021/06/17 01:05:40;;;;;;;67.88;60.97;;;18.20;99.90;;;;;;4132789;28;20370;-75
2021/06/17 01:08:07;;;;;;;71.45;64.18;;;18.20;99.90;;;;;;4132493;28;20027;-75
2021/06/17 01:10:39;;;;;;;71.57;64.18;;;18.10;99.90;;;;;;4132166;28;20092;-75
2021/06/17 01:13:11;;;;;;;73.30;66.07;;;18.10;99.90;;;;;;4132342;28;20065;-76
2021/06/17 01:15:18;;;;;;;71.30;63.80;;;18.10;99.90;;;;;;4124907;28;20045;-76
2021/06/17 01:17:23;;;;;;;68.82;61.55;;;18.10;99.90;;;;;;4132487;28;20066;-76
2021/06/17 01:19:43;;;;;;;65.20;58.90;;;18.10;99.90;;;;;;4134535;28;20030;-75
2021/06/17 01:21:52;;;;;;;70.07;63.05;;;18.10;99.90;;;;;;4132764;28;20022;-76
2021/06/17 01:24:03;;;;;;;65.18;58.75;;;18.10;99.90;;;;;;4132498;28;20474;-75
2021/06/17 01:26:40;;;;;;;65.03;58.55;;;18.00;99.90;;;;;;4131874;28;20080;-76
2021/06/17 01:28:43;;;;;;;73.43;65.97;;;18.10;99.90;;;;;;4132229;28;20034;-75
2021/06/17 01:31:07;;;;;;;66.40;59.70;;;18.10;99.90;;;;;;4132504;28;20386;-75
2021/06/17 01:33:09;;;;;;;68.28;61.08;;;18.00;99.90;;;;;;4130129;28;20038;-75
2021/06/17 01:35:12;;;;;;;67.40;60.83;;;18.00;99.90;;;;;;4131905;28;20031;-75
2021/06/17 01:37:16;;;;;;;70.68;63.55;;;18.00;99.90;;;;;;4132490;28;20049;-75
2021/06/17 01:39:19;;;;;;;73.72;66.13;;;18.00;99.90;;;;;;4130358;28;20508;-75
2021/06/17 01:41:23;;;;;;;71.88;64.82;;;18.00;99.90;;;;;;4143606;28;20381;-75
2021/06/17 01:43:25;;;;;;;72.03;64.60;;;18.00;99.90;;;;;;4131848;28;20037;-75
2021/06/17 01:45:26;;;;;;;73.47;66.03;;;17.90;99.90;;;;;;4132114;28;20511;-75
2021/06/17 01:47:29;;;;;;;72.40;64.85;;;17.90;99.90;;;;;;4132200;28;20105;-75
2021/06/17 01:49:30;;;;;;;;;;;18.00;99.90;;;;;;4130211;28;20041;-75
2021/06/17 01:51:32;;;;;;;66.57;59.53;;;17.90;99.90;;;;;;4130374;28;19918;-75
2021/06/17 01:53:35;;;;;;;70.07;63.05;;;17.90;99.90;;;;;;4131783;28;20389;-75
2021/06/17 01:55:38;;;;;;;72.78;65.47;;;17.90;99.90;;;;;;4131576;28;20104;-75
2021/06/17 01:57:40;;;;;;;72.82;64.95;;;17.90;99.90;;;;;;4130861;28;20370;-75
2021/06/17 01:59:44;;;;;;;72.07;64.80;;;17.90;99.90;;;;;;4130192;28;20043;-75
2021/06/17 02:01:46;;;;;;;74.00;66.50;;;17.80;99.90;;;;;;4128194;28;20038;-75
2021/06/17 02:03:47;;;;;;;70.35;63.15;;;17.80;99.90;;;;;;4145565;28;20385;-75
2021/06/17 02:05:48;;;;;;;71.65;64.20;;;17.80;99.90;;;;;;4130635;28;20068;-75
2021/06/17 02:07:51;;;;;;;71.00;63.83;;;17.80;99.90;;;;;;4126564;28;20082;-75
2021/06/17 02:09:53;;;;;;;71.07;64.13;;;17.80;99.90;;;;;;4130451;28;20085;-75
2021/06/17 02:11:55;;;;;;;70.20;62.93;;;17.80;99.90;;;;;;4130379;28;20042;-75
2021/06/17 02:13:58;;;;;;;72.93;65.45;;;17.70;99.90;;;;;;4131858;28;20510;-75
2021/06/17 02:16:03;;;;;;;65.60;59.08;;;17.80;99.90;;;;;;4131492;28;20031;-75
2021/06/17 02:18:05;;;;;;;75.45;67.53;;;17.80;99.90;;;;;;4129906;28;20089;-75
2021/06/17 02:20:09;;;;;;;75.55;67.82;;;17.80;99.90;;;;;;4131130;28;20100;-75
2021/06/17 02:22:12;;;;;;;74.85;66.80;;;17.70;99.90;;;;;;4130110;28;20050;-76
2021/06/17 02:24:12;;;;;;;64.53;58.03;;;17.80;99.90;;;;;;4131517;28;20097;-76
2021/06/17 02:26:13;;;;;;;73.00;65.43;;;17.80;99.90;;;;;;4131620;28;20030;-77
2021/06/17 02:28:18;;;;;;;69.85;62.60;;;17.80;99.90;;;;;;4131670;28;20054;-76
2021/06/17 02:30:20;;;;;;;71.50;64.45;;;17.80;99.90;;;;;;4138261;28;20032;-77
2021/06/17 02:32:23;;;;;;;69.35;62.92;;;17.80;99.90;;;;;;4133012;28;20034;-76
2021/06/17 02:34:24;;;;;;;69.22;62.15;;;17.80;99.90;;;;;;4130100;28;20038;-76
2021/06/17 02:36:27;;;;;;;70.40;63.42;;;17.80;99.90;;;;;;4131483;28;20125;-76
2021/06/17 02:38:30;;;;;;;70.57;63.70;;;17.80;99.90;;;;;;4130914;28;20065;-75
2021/06/17 02:40:35;;;;;;;71.40;64.00;;;17.80;99.90;;;;;;4131479;28;20486;-76
2021/06/17 02:42:36;;;;;;;72.40;65.28;;;17.80;99.90;;;;;;4130973;28;20030;-75
2021/06/17 02:44:37;;;;;;;66.13;59.65;;;17.80;99.90;;;;;;4131073;28;20504;-76
2021/06/17 02:46:38;;;;;;;64.93;58.53;;;17.80;99.90;;;;;;4131479;28;20042;-75
2021/06/17 02:48:39;;;;;;;69.18;62.45;;;17.70;99.90;;;;;;4131537;28;20377;-76
2021/06/17 02:50:40;;;;;;;69.65;62.28;;;17.70;99.90;;;;;;4136830;28;20197;-75
2021/06/17 02:52:41;;;;;;;70.00;62.80;;;17.70;99.90;;;;;;4132788;28;20514;-76
2021/06/17 02:54:41;;;;;;;64.38;57.88;;;17.60;99.90;;;;;;4129846;28;20038;-76
2021/06/17 02:57:17;;;;;;;61.72;55.63;;;17.60;99.90;;;;;;4130869;28;20176;-76
2021/06/17 02:59:33;;;;;;;64.70;58.05;;;17.60;99.90;;;;;;4129291;28;20411;-75
2021/06/17 03:01:48;;;;;;;67.30;60.65;;;17.50;99.90;;;;;;4130747;28;20121;-76
2021/06/17 03:04:16;;;;;;;69.85;62.90;;;17.50;99.90;;;;;;4129330;28;20107;-75
2021/06/17 03:06:25;;;;;;;62.33;56.08;;;17.50;99.90;;;;;;4129764;28;20177;-75
2021/06/17 03:08:39;;;;;;;60.42;54.10;;;17.50;99.90;;;;;;4130890;28;20026;-75
2021/06/17 03:10:44;;;;;;;63.65;56.97;;;17.50;99.90;;;;;;4127632;28;20034;-76
2021/06/17 03:12:47;;;;;;;59.28;53.35;;;17.50;99.90;;;;;;4129785;28;20118;-75
2021/06/17 03:14:49;;;;;;;;;;;17.50;99.90;;;;;;4131312;28;20030;-75
2021/06/17 03:16:51;;;;;;;63.60;57.15;;;;;;;;;;4130796;28;19913;-75
2021/06/17 03:18:57;;;;;;;69.93;62.80;;;;;;;;;;4130646;28;20398;-75
2021/06/17 03:21:01;;;;;;;66.78;59.92;;;;;;;;;;4130225;28;20080;-75
2021/06/17 03:23:05;;;;;;;62.45;56.17;;;17.40;99.90;;;;;;4127054;28;20030;-75
2021/06/17 03:25:12;;;;;;;63.90;57.45;;;;;;;;;;4130033;28;20076;-75
2021/06/17 03:27:14;;;;;;;65.78;59.42;;;;;;;;;;4127621;28;20037;-75
2021/06/17 03:29:17;;;;;;;62.75;56.30;;;;;;;;;;4129281;28;20026;-75
2021/06/17 03:31:19;;;;;;;58.03;52.03;;;;;;;;;;4145403;28;20030;-75
2021/06/17 03:33:22;;;;;;;59.33;52.95;;;;;;;;;;4130237;28;20452;-76
2021/06/17 03:35:23;;;;;;;63.67;57.33;;;;;;;;;;4129890;28;20530;-75
2021/06/17 03:37:26;;;;;;;65.75;59.15;;;;;;;;;;4145106;28;20042;-75
2021/06/17 03:39:28;;;;;;;61.35;54.95;;;17.60;99.90;;;;;;4129684;28;20049;-75
2021/06/17 03:41:30;;;;;;;65.25;58.47;;;18.70;99.90;;;;;;4130098;28;20034;-75
2021/06/17 03:43:31;;;;;;;61.58;55.58;;;17.60;99.90;;;;;;4130624;28;20046;-75
2021/06/17 03:45:32;;;;;;;58.83;53.33;;;17.70;99.90;;;;;;4145279;28;20066;-76
2021/06/17 03:47:35;;;;;;;62.67;56.40;;;17.70;99.90;;;;;;4127811;28;20034;-76
2021/06/17 03:49:44;;;;;;;60.83;54.72;;;17.70;99.90;;;;;;4132918;28;20034;-76
2021/06/17 03:51:45;;;;;;;63.03;56.72;;;17.90;99.90;;;;;;4129503;28;20035;-75
2021/06/17 03:53:46;;;;;;;62.85;56.58;;;17.70;99.90;;;;;;4129278;28;20081;-75
2021/06/17 03:55:51;;;;;;;62.03;55.67;;;17.70;99.90;;;;;;4126541;28;20426;-75
2021/06/17 03:57:56;;;;;;;61.10;55.03;;;17.70;99.90;;;;;;4128951;28;20038;-75
2021/06/17 03:59:57;;;;;;;60.42;54.47;;;17.60;99.90;;;;;;4129081;28;20034;-76
2021/06/17 04:01:58;;;;;;;61.30;55.60;;;17.70;99.90;;;;;;4126811;28;20393;-75
2021/06/17 04:03:58;;;;;;;55.22;49.80;;;18.00;99.90;;;;;;4123464;28;20106;-75
2021/06/17 04:06:00;;;;;;;58.78;53.25;;;17.90;99.90;;;;;;4128342;28;20544;-75
2021/06/17 04:08:02;;;;;;;58.47;52.83;;;18.00;99.90;;;;;;4133265;28;20037;-75
2021/06/17 04:10:05;;;;;;;59.67;53.80;;;18.00;99.90;;;;;;4129847;28;20046;-75
2021/06/17 04:12:10;;;;;;;59.95;54.42;;;18.10;99.90;;;;;;4128272;28;20119;-75
2021/06/17 04:14:11;;;;;;;61.42;55.60;;;18.20;99.90;;;;;;4128363;28;20042;-76
2021/06/17 04:16:17;;;;;;;55.60;50.53;;;18.30;99.90;;;;;;4130257;28;20506;-76
2021/06/17 04:18:18;;;;;;;57.63;52.03;;;17.90;99.90;;;;;;4129711;28;20505;-76
2021/06/17 04:20:25;;;;;;;53.10;48.13;;;18.30;99.90;;;;;;4129874;28;20125;-76
2021/06/17 04:22:28;;;;;;;58.53;52.97;;;18.40;99.90;;;;;;4130094;28;20038;-76
2021/06/17 04:24:30;;;;;;;;;;;18.40;99.90;;;;;;4154929;28;20088;-76
2021/06/17 04:26:30;;;;;;;55.03;49.35;;;18.50;99.90;;;;;;4130106;28;20270;-76
2021/06/17 04:28:33;;;;;;;52.95;47.40;;;18.60;99.90;;;;;;4130005;28;20100;-76
2021/06/17 04:30:35;;;;;;;52.80;47.60;;;18.60;99.90;;;;;;4130182;28;20485;-76
2021/06/17 04:32:38;;;;;;;49.33;44.53;;;18.70;99.90;;;;;;4128830;28;20114;-76
2021/06/17 04:34:41;;;;;;;52.33;47.28;;;18.70;99.90;;;;;;4129768;28;20433;-76
2021/06/17 04:36:42;;;;;;;52.13;47.33;;;18.80;99.90;;;;;;4130077;28;20035;-77
2021/06/17 04:38:47;;;;;;;47.38;42.85;;;18.90;99.90;;;;;;4129848;28;20347;-76
2021/06/17 04:40:49;;;;;;;49.30;44.22;;;18.90;99.90;;;;;;4129896;28;20536;-76
2021/06/17 04:42:54;;;;;;;51.53;46.15;;;19.00;99.90;;;;;;4129688;28;20037;-76
2021/06/17 04:44:55;;;;;;;47.05;42.58;;;19.10;99.90;;;;;;4127950;28;20042;-76
2021/06/17 04:46:57;;;;;;;46.08;41.47;;;19.20;99.90;;;;;;4129926;28;20034;-76
2021/06/17 04:48:58;;;;;;;42.80;38.90;;;19.40;99.90;;;;;;4130008;28;20040;-76
2021/06/17 04:50:59;;;;;;;47.00;42.17;;;19.50;99.90;;;;;;4122830;28;20461;-76
2021/06/17 04:53:06;;;;;;;45.63;41.03;;;19.60;99.90;;;;;;4129218;28;20034;-76
2021/06/17 04:55:07;;;;;;;45.08;40.92;;;19.80;99.90;;;;;;4120319;28;20043;-76
2021/06/17 04:57:09;;;;;;;42.40;38.33;;;;;;;;;;4127998;28;20122;-76
2021/06/17 04:59:10;;;;;;;43.05;38.92;;;19.80;99.90;;;;;;4128118;28;20121;-76
2021/06/17 05:01:10;;;;;;;42.45;38.13;;;20.00;99.90;;;;;;4157685;28;20041;-76
2021/06/17 05:03:11;;;;;;;42.97;38.58;;;20.10;99.90;;;;;;4125337;28;20031;-76
2021/06/17 05:05:12;;;;;;;40.47;36.28;;;20.20;99.90;;;;;;4129107;28;20028;-76
2021/06/17 05:11:40;;;;;;;37.53;33.13;;;20.70;99.90;;;;;;4129328;28;20685;-76
2021/06/17 05:13:43;;;;;;;36.33;32.92;;;20.90;99.90;;;;;;4129461;28;20030;-75
2021/06/17 05:15:47;;;;;;;36.83;33.10;;;20.90;99.90;;;;;;4129578;28;20033;-75
2021/06/17 05:17:48;;;;;;;35.30;30.70;;;21.40;99.90;;;;;;4129378;28;20043;-75
2021/06/17 05:19:48;;;;;;;35.63;32.22;;;21.30;99.90;;;;;;4127913;28;20347;-75
2021/06/17 05:21:49;;;;;;;36.05;32.70;;;21.20;99.90;;;;;;4160594;28;20062;-75
2021/06/17 05:23:49;;;;;;;34.75;31.35;;;21.20;99.90;;;;;;4129021;28;20038;-76
2021/06/17 05:25:52;;;;;;;34.50;31.20;;;21.20;99.90;;;;;;4146882;28;20038;-75
2021/06/17 05:27:53;;;;;;;35.13;31.63;;;21.20;99.90;;;;;;4145214;28;20037;-75
2021/06/17 05:29:53;;;;;;;33.60;30.30;;;21.20;99.90;;;;;;4132311;28;20034;-76
2021/06/17 05:31:55;;;;;;;32.20;28.88;;;21.20;99.90;;;;;;4130430;28;20041;-76
2021/06/17 05:33:56;;;;;;;33.85;30.67;;;21.30;99.90;;;;;;4130984;28;20081;-76
2021/06/17 05:35:59;;;;;;;33.10;29.95;;;21.40;99.90;;;;;;4131106;28;20117;-76
2021/06/17 05:38:00;;;;;;;33.47;29.75;;;21.60;99.90;;;;;;4129864;28;20049;-76
2021/06/17 05:40:01;;;;;;;36.65;30.20;;;21.70;99.90;;;;;;4132054;28;20022;-76
2021/06/17 05:42:02;;;;;;;32.25;28.80;;;21.90;99.90;;;;;;4131564;28;20041;-75
2021/06/17 05:44:03;;;;;;;31.58;28.30;;;22.00;99.90;;;;;;4132038;28;20026;-75
2021/06/17 05:46:04;;;;;;;33.10;28.58;;;22.10;99.90;;;;;;4131674;28;20030;-75
2021/06/17 05:48:05;;;;;;;31.00;27.70;;;22.30;99.90;;;;;;4131983;28;20118;-76
2021/06/17 05:50:06;;;;;;;29.92;26.92;;;22.40;99.90;;;;;;4130412;28;20038;-76
2021/06/17 05:52:07;;;;;;;29.70;26.60;;;22.50;99.90;;;;;;4131486;28;20061;-75
2021/06/17 05:54:08;;;;;;;29.63;26.80;;;22.60;99.90;;;;;;4130768;28;20042;-76
2021/06/17 05:56:08;;;;;;;29.58;25.73;;;22.70;99.90;;;;;;4131689;28;20425;-75
2021/06/17 05:58:11;;;;;;;27.42;24.48;;;22.90;99.90;;;;;;4127443;28;20529;-76
2021/06/17 06:00:13;;;;;;;26.27;23.77;;;23.00;99.90;;;;;;4129991;28;20026;-76
2021/06/17 06:02:14;;;;;;;26.45;23.60;;;23.10;99.90;;;;;;4131764;28;20038;-76
2021/06/17 06:04:14;;;;;;;26.00;23.27;;;23.30;99.90;;;;;;4128856;28;20041;-76
2021/06/17 06:06:15;;;;;;;25.52;22.85;;;23.60;99.90;;;;;;4131463;28;20022;-76
2021/06/17 06:08:16;;;;;;;27.77;21.92;;;23.70;99.90;;;;;;4128473;28;20034;-76
2021/06/17 06:10:17;;;;;;;22.30;20.20;;;23.80;99.90;;;;;;4130849;28;20049;-76
2021/06/17 06:12:18;;;;;;;22.00;19.88;;;24.10;99.90;;;;;;4129785;28;20030;-76
2021/06/17 06:14:19;;;;;;;21.02;18.83;;;24.30;99.90;;;;;;4129580;28;20034;-76
2021/06/17 06:16:20;;;;;;;19.90;17.83;;;;;;;;;;4131146;28;20328;-76
2021/06/17 06:18:25;;;;;;;20.40;18.00;;;24.80;99.90;;;;;;4131423;28;20063;-76
2021/06/17 06:20:25;;;;;;;20.00;17.80;;;25.00;99.90;;;;;;4130811;28;20042;-76
2021/06/17 06:22:26;;;;;;;19.42;17.50;;;25.20;99.90;;;;;;4130967;28;20046;-76
2021/06/17 06:24:27;;;;;;;18.15;15.98;;;25.30;99.90;;;;;;4126846;28;20031;-76
2021/06/17 06:26:27;;;;;;;18.65;16.85;;;25.30;99.90;;;;;;4130703;28;20042;-76
2021/06/17 06:28:30;;;;;;;21.23;16.58;;;25.60;99.90;;;;;;4129141;28;20119;-76
2021/06/17 06:30:31;;;;;;;22.38;16.55;;;25.60;99.90;;;;;;4130538;28;20046;-76
2021/06/17 06:32:32;;;;;;;18.08;16.33;;;25.70;99.90;;;;;;4130098;28;20506;-76
2021/06/17 06:34:33;;;;;;;15.70;14.30;;;25.90;99.90;;;;;;4130476;28;20044;-76
2021/06/17 06:36:34;;;;;;;15.93;14.23;;;27.10;99.90;;;;;;4128355;28;20042;-76
2021/06/17 06:38:36;;;;;;;15.32;13.30;;;;;;;;;;4129816;28;20418;-75
2021/06/17 06:40:38;;;;;;;16.88;15.15;;;26.50;99.90;;;;;;4123498;28;20073;-76
2021/06/17 06:42:39;;;;;;;14.90;13.43;;;26.80;99.90;;;;;;4125821;28;20041;-77
2021/06/17 06:44:39;;;;;;;18.95;15.45;;;26.80;99.90;;;;;;4121852;28;20435;-77
2021/06/17 06:46:42;;;;;;;19.33;13.77;;;26.90;99.90;;;;;;4129132;28;20062;-76
2021/06/17 06:48:43;;;;;;;15.18;13.65;;;27.00;99.90;;;;;;4123721;28;20109;-77
2021/06/17 06:50:47;;;;;;;16.77;13.98;;;27.10;99.90;;;;;;4126565;28;20086;-76
2021/06/17 06:52:49;;;;;;;15.75;12.70;;;27.00;99.90;;;;;;4120932;28;20089;-75
2021/06/17 06:54:50;;;;;;;14.77;12.63;;;27.10;99.90;;;;;;4126109;28;20038;-76
2021/06/17 06:56:50;;;;;;;18.95;14.38;;;27.20;99.90;;;;;;4125836;28;20697;-76
2021/06/17 06:58:51;;;;;;;16.77;14.13;;;27.10;99.90;;;;;;4128085;28;20082;-76
2021/06/17 07:00:53;;;;;;;17.85;13.15;;;27.10;99.90;;;;;;4123762;28;20026;-76
2021/06/17 07:02:54;;;;;;;12.15;11.00;;;27.20;99.90;;;;;;4130434;28;20049;-76
2021/06/17 07:04:55;;;;;;;13.27;11.95;;;27.10;99.90;;;;;;4130399;28;20034;-76
2021/06/17 07:06:55;;;;;;;16.30;12.60;;;27.00;99.90;;;;;;4130688;28;20039;-77
2021/06/17 07:08:56;;;;;;;13.20;11.95;;;26.80;99.90;;;;;;4130632;28;20105;-76
2021/06/17 07:10:56;;;;;;;20.98;12.95;;;26.80;99.90;;;;;;4130480;28;20045;-76
2021/06/17 07:12:57;;;;;;;18.10;13.00;;;26.60;99.90;;;;;;4130319;28;20033;-77
2021/06/17 07:14:58;;;;;;;19.95;12.73;;;26.60;99.90;;;;;;4130501;28;20355;-77
2021/06/17 07:17:00;;;;;;;20.00;14.05;;;26.40;99.90;;;;;;4130015;28;20034;-76
2021/06/17 07:19:02;;;;;;;14.25;12.77;;;26.30;99.90;;;;;;4130574;28;20034;-76
2021/06/17 07:21:03;;;;;;;17.05;13.63;;;26.30;99.90;;;;;;4128522;28;20046;-76
2021/06/17 07:23:04;;;;;;;17.65;14.18;;;26.30;99.90;;;;;;4153363;28;20061;-76
2021/06/17 07:25:06;;;;;;;14.30;12.52;;;26.50;99.90;;;;;;4129343;28;20034;-76
2021/06/17 07:27:07;;;;;;;14.32;12.18;;;26.50;99.90;;;;;;4128777;28;20125;-76
2021/06/17 07:29:08;;;;;;;14.57;10.73;;;26.60;99.90;;;;;;4130134;28;20039;-75
2021/06/17 07:31:09;;;;;;;15.00;11.23;;;26.80;99.90;;;;;;4130190;28;20030;-76
2021/06/17 07:33:09;;;;;;;10.82;9.77;;;27.00;99.90;;;;;;4130052;28;20351;-76
2021/06/17 07:35:11;;;;;;;12.57;10.23;;;27.20;99.90;;;;;;4126567;28;20036;-76
2021/06/17 07:37:13;;;;;;;11.57;10.48;;;27.50;99.90;;;;;;4128753;28;20544;-76
2021/06/17 07:39:15;;;;;;;11.75;8.80;;;27.70;99.90;;;;;;4129708;28;20034;-76
2021/06/17 07:41:16;;;;;;;14.90;10.43;;;28.00;99.90;;;;;;4128451;28;20026;-76
2021/06/17 07:43:17;;;;;;;11.80;9.68;;;28.20;99.90;;;;;;4130147;28;20062;-76
2021/06/17 07:45:17;;;;;;;11.32;9.13;;;28.30;99.90;;;;;;4129559;28;20026;-76
2021/06/17 07:47:18;;;;;;;10.20;7.97;;;28.30;99.90;;;;;;4127756;28;20038;-76
2021/06/17 07:49:19;;;;;;;8.60;7.65;;;28.30;99.90;;;;;;4129307;28;20037;-76
2021/06/17 07:51:20;;;;;;;11.13;8.10;;;28.30;99.90;;;;;;4130023;28;20038;-76
2021/06/17 07:53:21;;;;;;;9.27;7.45;;;28.30;99.90;;;;;;4128879;28;20130;-76
2021/06/17 07:55:22;;;;;;;8.98;8.02;;;28.30;99.90;;;;;;4128888;28;20146;-77
2021/06/17 07:57:23;;;;;;;10.65;7.47;;;28.60;99.90;;;;;;4132709;28;20563;-76
2021/06/17 07:59:24;;;;;;;7.97;7.15;;;28.70;99.90;;;;;;4130973;28;20038;-77
2021/06/17 08:01:26;;;;;;;8.50;7.40;;;28.80;99.90;;;;;;4128181;28;20125;-77
2021/06/17 08:03:27;;;;;;;8.45;7.60;;;28.70;99.90;;;;;;4126774;28;20054;-76
2021/06/17 08:05:28;;;;;;;12.27;7.30;;;28.70;99.90;;;;;;4125478;28;20042;-77
2021/06/17 08:07:29;;;;;;;8.30;7.47;;;28.70;99.90;;;;;;4127609;28;20274;-77
2021/06/17 08:09:29;;;;;;;9.93;7.88;;;28.70;99.90;;;;;;4126880;28;20389;-77
2021/06/17 08:11:30;;;;;;;9.18;7.05;;;28.70;99.90;;;;;;4128558;28;20045;-77
2021/06/17 08:13:30;;;;;;;8.55;7.38;;;28.60;99.90;;;;;;4128192;28;20525;-77
2021/06/17 08:15:32;;;;;;;11.63;7.10;;;28.80;99.90;;;;;;4129590;28;20038;-77
2021/06/17 08:17:33;;;;;;;8.87;6.70;;;29.20;99.90;;;;;;4129235;28;20046;-77
2021/06/17 08:19:33;;;;;;;10.60;7.25;;;29.10;99.90;;;;;;4130725;28;20035;-77
2021/06/17 08:21:34;;;;;;;8.73;7.25;;;29.20;99.90;;;;;;4133918;28;20042;-77
2021/06/17 08:23:35;;;;;;;9.07;6.28;;;29.40;99.90;;;;;;4133043;28;20038;-77
2021/06/17 08:25:36;;;;;;;8.32;6.38;;;29.30;99.90;;;;;;4129740;28;20101;-76
2021/06/17 08:27:36;;;;;;;8.80;6.43;;;29.30;99.90;;;;;;4129906;28;20092;-76
2021/06/17 08:29:38;;;;;;;13.63;7.40;;;29.30;99.90;;;;;;4129551;28;20038;-77
2021/06/17 08:31:40;;;;;;;10.05;7.15;;;29.20;99.90;;;;;;4128246;28;20030;-76
2021/06/17 08:33:41;;;;;;;;;;;29.40;99.90;;;;;;4130027;28;20039;-76
2021/06/17 08:35:41;;;;;;;7.65;6.63;;;29.40;99.90;;;;;;4129872;28;20041;-76
2021/06/17 08:37:42;;;;;;;8.40;7.53;;;29.50;99.90;;;;;;4127899;28;20518;-77
2021/06/17 08:39:43;;;;;;;9.68;8.48;;;29.90;99.90;;;;;;4129258;28;20034;-77
2021/06/17 08:41:44;;;;;;;8.35;7.25;;;29.80;99.90;;;;;;4127948;28;20382;-76
2021/06/17 08:43:45;;;;;;;9.05;6.97;;;29.70;99.90;;;;;;4132715;28;20037;-76
2021/06/17 08:45:46;;;;;;;8.25;7.03;;;29.70;99.90;;;;;;4131631;28;20062;-76
2021/06/17 08:47:47;;;;;;;10.73;6.32;;;29.90;99.90;;;;;;4127931;28;20038;-76
2021/06/17 08:49:51;;;;;;;7.35;6.63;;;29.90;99.90;;;;;;4160518;28;20060;-77
2021/06/17 08:51:57;;;;;;;7.80;6.53;;;30.10;99.90;;;;;;4129001;28;20037;-77
2021/06/17 08:53:58;;;;;;;9.82;6.75;;;30.20;99.90;;;;;;4123135;28;20078;-77
2021/06/17 08:55:59;;;;;;;8.73;6.70;;;30.40;99.90;;;;;;4129273;28;20158;-77
2021/06/17 08:57:59;;;;;;;10.90;7.28;;;30.40;99.90;;;;;;4129050;28;20157;-77
2021/06/17 09:00:02;;;;;;;8.90;6.35;;;30.60;99.90;;;;;;4132440;28;20401;-77
2021/06/17 09:02:04;;;;;;;10.48;8.07;;;30.60;99.90;;;;;;4130764;28;20026;-76
2021/06/17 09:04:23;;;;;;;8.05;6.65;;;30.50;99.90;;;;;;4132328;28;20022;-76
2021/06/17 09:06:24;;;;;;;7.53;6.72;;;30.30;99.90;;;;;;4130856;28;20049;-78
2021/06/17 09:08:27;;;;;;;11.50;7.22;;;30.70;99.90;;;;;;4132458;28;20034;-77
2021/06/17 09:10:28;;;;;;;8.63;6.05;;;30.70;99.90;;;;;;4132301;28;20022;-77
2021/06/17 09:12:43;;;;;;;8.32;6.13;;;;;;;;;;4132174;28;20069;-77
2021/06/17 09:14:52;;;;;;;10.32;5.90;;;31.10;99.90;;;;;;4128239;28;20165;-77
2021/06/17 09:17:08;;;;;;;7.35;5.88;;;31.70;99.90;;;;;;4132243;28;20113;-77
2021/06/17 09:19:09;;;;;;;8.35;6.78;;;;;;;;;;4131611;28;20057;-77
2021/06/17 09:21:10;;;;;;;11.50;6.43;;;32.20;99.90;;;;;;4131567;28;20050;-77
2021/06/17 09:23:23;;;;;;;6.82;5.72;;;32.00;99.90;;;;;;4132156;28;20022;-77
2021/06/17 09:25:24;;;;;;;7.07;6.47;;;32.20;99.90;;;;;;4145014;28;20042;-77
2021/06/17 09:27:55;;;;;;;6.93;5.95;;;32.00;99.90;;;;;;4129941;28;20062;-77
2021/06/17 09:30:17;;;;;;;9.07;5.93;;;32.10;99.90;;;;;;4131352;28;20034;-76
2021/06/17 09:32:41;;;;;;;6.35;5.72;;;31.90;99.90;;;;;;4130967;28;20046;-76
2021/06/17 09:34:42;;;;;;;9.98;7.75;;;31.90;99.90;;;;;;4129154;28;20046;-76
2021/06/17 09:36:45;;;;;;;15.45;6.88;;;32.00;99.90;;;;;;4131588;28;20042;-76
2021/06/17 09:38:47;;;;;;;7.70;6.93;;;31.80;99.90;;;;;;4131650;28;20065;-77
2021/06/17 09:40:52;;;;;;;10.07;7.43;;;31.80;99.90;;;;;;4130019;28;20572;-77
2021/06/17 09:42:55;;;;;;;7.38;6.57;;;31.80;99.90;;;;;;4130049;28;20037;-77
2021/06/17 09:44:58;;;;;;;8.23;6.75;;;32.10;99.90;;;;;;4131343;28;20355;-77
2021/06/17 09:47:24;;;;;;;8.02;6.57;;;32.30;99.90;;;;;;4127458;28;20105;-76
2021/06/17 09:49:26;;;;;;;10.32;6.15;;;32.40;99.90;;;;;;4123743;28;20066;-75
2021/06/17 09:51:38;;;;;;;;;;;32.70;99.90;;;;;;4127867;28;20038;-75
2021/06/17 09:53:39;;;;;;;8.20;7.05;;;32.50;99.90;;;;;;4131026;28;19920;-75
2021/06/17 09:55:44;;;;;;;7.90;6.63;;;33.10;99.90;;;;;;4128689;28;20454;-75
2021/06/17 09:57:44;;;;;;;7.00;6.28;;;33.60;99.90;;;;;;4128939;28;20041;-77
2021/06/17 10:00:04;;;;;;;11.15;7.32;;;34.20;99.90;;;;;;4131479;28;20026;-80
2021/06/17 10:02:07;;;;;;;7.28;6.63;;;34.30;99.90;;;;;;4130475;28;20451;-76
2021/06/17 10:04:10;;;;;;;6.95;6.32;;;34.00;99.90;;;;;;4129375;28;20046;-75
2021/06/17 10:06:20;;;;;;;10.57;6.50;;;33.90;99.90;;;;;;4126176;28;20422;-84
2021/06/17 10:08:21;;;;;;;9.73;6.20;;;34.90;99.90;;;;;;4125932;28;20042;-75
2021/06/17 10:10:26;;;;;;;8.90;6.32;;;32.20;99.90;;;;;;4124674;28;20381;-77
2021/06/17 10:12:27;;;;;;;7.57;6.07;;;32.80;99.90;;;;;;4131222;28;20042;-77
2021/06/17 10:14:29;;;;;;;7.47;6.40;;;32.70;99.90;;;;;;4130601;28;20107;-77
2021/06/17 10:16:32;;;;;;;11.13;6.55;;;31.40;99.90;;;;;;4126160;28;20054;-78
2021/06/17 10:18:33;;;;;;;9.85;5.60;;;32.90;99.90;;;;;;4122755;28;20057;-78
2021/06/17 10:20:35;;;;;;;7.88;5.82;;;33.40;99.90;;;;;;4125192;28;20042;-78
2021/06/17 10:22:40;;;;;;;8.20;6.55;;;33.10;99.90;;;;;;4137722;28;20042;-78
2021/06/17 10:24:41;;;;;;;9.45;6.28;;;33.50;99.90;;;;;;4129400;28;20042;-78
2021/06/17 10:26:51;;;;;;;7.68;6.53;;;33.50;99.90;;;;;;4127775;28;20121;-78
2021/06/17 10:28:55;;;;;;;11.60;6.43;;;33.60;99.90;;;;;;4129315;28;20481;-78
2021/06/17 10:30:55;;;;;;;8.65;6.05;;;33.50;99.90;;;;;;4125312;28;20466;-78
2021/06/17 10:32:58;;;;;;;10.68;6.47;;;33.70;99.90;;;;;;4129280;28;20037;-77
2021/06/17 10:34:58;;;;;;;9.23;6.80;;;33.10;99.90;;;;;;4129408;28;20034;-78
2021/06/17 10:37:25;;;;;;;10.43;6.25;;;33.70;99.90;;;;;;4125325;28;20064;-79
2021/06/17 10:39:38;;;;;;;9.02;6.18;;;33.60;99.90;;;;;;4129122;28;20559;-78